createdAt,value
2022-11-04T00:03:56.525Z,5.25
2022-11-04T00:08:58.350Z,5.25
2022-11-04T00:13:59.670Z,5.28
2022-11-04T00:19:00.977Z,5.31
2022-11-04T00:24:21.791Z,5.35
2022-11-04T00:29:22.889Z,5.40
2022-11-04T00:34:23.798Z,5.47
2022-11-04T00:39:24.788Z,5.56
2022-11-04T00:44:26.238Z,5.65
2022-11-04T00:49:27.259Z,5.77
2022-11-04T00:54:28.251Z,5.91
2022-11-04T00:59:29.271Z,6.06
2022-11-04T01:04:30.284Z,6.24
2022-11-04T01:09:31.652Z,6.41
2022-11-04T01:14:33.022Z,6.55
2022-11-04T01:19:33.972Z,6.68
2022-11-04T01:24:35.120Z,6.81
2022-11-04T01:29:36.860Z,6.83
2022-11-04T01:34:42.382Z,6.91
2022-11-04T01:39:44.749Z,7.06
2022-11-04T01:44:47.919Z,7.10
2022-11-04T01:49:54.246Z,7.13
2022-11-04T01:54:58.810Z,7.14
2022-11-04T02:00:03.838Z,7.17
2022-11-04T02:05:05.308Z,7.24
2022-11-04T02:10:07.489Z,7.33
2022-11-04T02:15:08.748Z,7.43
2022-11-04T02:20:24.197Z,7.50
2022-11-04T02:26:02.588Z,7.55
2022-11-04T02:31:31.436Z,7.60
2022-11-04T02:36:45.784Z,7.65
2022-11-04T02:41:58.649Z,7.71
2022-11-04T02:47:02.312Z,7.74
2022-11-04T02:52:07.704Z,7.78
2022-11-04T02:57:15.049Z,7.80
2022-11-04T03:02:26.437Z,7.84
2022-11-04T03:07:33.484Z,7.88
2022-11-04T03:12:57.799Z,7.90
2022-11-04T03:18:15.247Z,7.93
2022-11-04T03:23:17.172Z,7.96
2022-11-04T03:28:42.552Z,8.00
2022-11-04T03:33:49.788Z,8.06
2022-11-04T03:38:52.043Z,8.10
2022-11-04T03:43:53.072Z,8.14
2022-11-04T03:48:54.831Z,8.18
2022-11-04T03:53:57.198Z,8.16
2022-11-04T03:59:06.919Z,8.14
2022-11-04T04:04:16.582Z,8.08
2022-11-04T04:09:50.820Z,8.03
2022-11-04T04:15:02.411Z,7.99
2022-11-04T04:20:15.122Z,7.98
2022-11-04T04:25:35.584Z,7.99
2022-11-04T04:30:37.726Z,7.96
2022-11-04T04:35:43.938Z,7.94
2022-11-04T04:41:13.551Z,7.92
2022-11-04T04:46:14.917Z,7.89
2022-11-04T04:51:15.977Z,7.86
2022-11-04T04:56:17.189Z,7.83
2022-11-04T05:01:18.304Z,7.78
2022-11-04T05:06:19.663Z,7.73
2022-11-04T05:11:24.369Z,7.68
2022-11-04T05:16:28.438Z,7.65
2022-11-04T05:21:29.441Z,7.62
2022-11-04T05:26:30.431Z,7.58
2022-11-04T05:31:31.593Z,7.55
2022-11-04T05:36:32.500Z,7.51
2022-11-04T05:41:34.270Z,7.49
2022-11-04T05:46:35.870Z,7.47
2022-11-04T05:51:37.089Z,7.47
2022-11-04T05:56:38.369Z,7.49
2022-11-04T06:01:43.109Z,7.51
2022-11-04T06:06:44.497Z,7.52
2022-11-04T06:11:45.880Z,7.53
2022-11-04T06:16:47.073Z,7.51
2022-11-04T06:21:48.086Z,7.51
2022-11-04T06:26:49.123Z,7.52
2022-11-04T06:31:50.380Z,7.55
2022-11-04T06:36:52.475Z,7.57
2022-11-04T06:41:55.504Z,7.61
2022-11-04T06:46:59.046Z,7.65
2022-11-04T06:52:01.675Z,7.69
2022-11-04T06:57:03.442Z,7.74
2022-11-04T07:02:05.183Z,7.80
2022-11-04T07:07:06.461Z,7.86
2022-11-04T07:12:07.486Z,7.92
2022-11-04T07:17:08.542Z,7.98
2022-11-04T07:22:10.539Z,8.01
2022-11-04T07:27:11.616Z,8.05
2022-11-04T07:32:12.775Z,8.13
2022-11-04T07:37:13.824Z,8.20
2022-11-04T07:42:14.904Z,8.24
2022-11-04T07:47:15.923Z,8.26
2022-11-04T07:52:17.049Z,8.29
2022-11-04T07:57:19.158Z,8.32
2022-11-04T08:02:25.949Z,8.34
2022-11-04T08:07:29.948Z,8.30
2022-11-04T08:12:31.880Z,8.30
2022-11-04T08:17:32.896Z,8.30
2022-11-04T08:22:34.017Z,8.30
2022-11-04T08:27:35.018Z,8.28
2022-11-04T08:32:36.277Z,8.28
2022-11-04T08:37:37.901Z,8.29
2022-11-04T08:42:39.250Z,8.33
2022-11-04T08:47:40.171Z,8.38
2022-11-04T08:52:41.212Z,8.47
2022-11-04T08:57:42.172Z,8.56
2022-11-04T09:02:43.484Z,8.64
2022-11-04T09:07:44.521Z,8.72
2022-11-04T09:12:46.033Z,8.79
2022-11-04T09:17:47.051Z,8.84
2022-11-04T09:22:50.132Z,8.87
2022-11-04T09:27:51.171Z,8.93
2022-11-04T09:32:52.999Z,9.02
2022-11-04T09:37:55.066Z,9.08
2022-11-04T09:43:33.551Z,9.18
2022-11-04T09:48:41.220Z,9.32
2022-11-04T09:53:49.965Z,9.49
2022-11-04T09:58:51.562Z,9.73
2022-11-04T10:04:09.073Z,9.93
2022-11-04T10:09:22.910Z,9.99
2022-11-04T10:14:45.472Z,10.00
2022-11-04T10:20:05.449Z,10.05
2022-11-04T10:25:22.611Z,10.11
2022-11-04T10:30:25.488Z,10.20
2022-11-04T10:35:38.963Z,10.36
2022-11-04T10:40:41.550Z,10.53
2022-11-04T10:46:00.448Z,10.66
2022-11-04T10:51:02.310Z,10.82
2022-11-04T10:56:06.671Z,10.95
2022-11-04T11:01:31.551Z,11.09
2022-11-04T11:06:35.185Z,11.18
2022-11-04T11:11:44.681Z,11.13
2022-11-04T11:16:47.341Z,11.06
2022-11-04T11:21:49.873Z,11.00
2022-11-04T11:27:00.376Z,10.97
2022-11-04T11:32:01.574Z,10.92
2022-11-04T11:37:04.361Z,10.86
2022-11-04T11:42:10.585Z,10.83
2022-11-04T11:47:35.614Z,10.88
2022-11-04T11:52:37.579Z,11.01
2022-11-04T12:03:13.489Z,11.40
2022-11-04T12:14:10.295Z,11.58
2022-11-04T12:19:40.929Z,11.57
2022-11-04T12:25:08.948Z,11.51
2022-11-04T12:30:22.546Z,11.43
2022-11-04T12:35:32.328Z,11.38
2022-11-04T12:40:41.451Z,11.37
2022-11-04T12:46:04.424Z,11.41
2022-11-04T12:51:50.766Z,11.64
2022-11-04T12:57:12.092Z,11.77
2022-11-04T13:02:27.904Z,11.86
2022-11-04T13:07:53.293Z,11.96
2022-11-04T13:12:56.279Z,12.03
2022-11-04T13:18:05.985Z,12.06
2022-11-04T13:23:15.901Z,12.04
2022-11-04T13:28:19.489Z,11.91
2022-11-04T13:33:45.746Z,11.70
2022-11-04T13:38:56.922Z,11.56
2022-11-04T13:44:03.825Z,11.47
2022-11-04T13:49:31.641Z,11.39
2022-11-04T13:54:35.030Z,11.31
2022-11-04T13:59:36.402Z,11.21
2022-11-04T14:04:42.100Z,11.14
2022-11-04T14:09:46.146Z,11.11
2022-11-04T14:14:51.520Z,11.04
2022-11-04T14:19:55.509Z,10.96
2022-11-04T14:25:18.116Z,10.87
2022-11-04T14:30:38.143Z,10.77
2022-11-04T14:35:39.196Z,10.67
2022-11-04T14:40:51.625Z,10.58
2022-11-04T14:45:54.599Z,10.51
2022-11-04T14:50:56.563Z,10.46
2022-11-04T14:56:23.752Z,10.43
2022-11-04T15:01:34.182Z,10.40
2022-11-04T15:06:53.430Z,10.33
2022-11-04T15:12:26.754Z,10.25
2022-11-04T15:17:32.799Z,10.17
2022-11-04T15:22:35.058Z,10.07
2022-11-04T15:27:36.622Z,9.99
2022-11-04T15:32:37.734Z,9.90
2022-11-04T15:37:40.880Z,9.82
2022-11-04T15:42:43.847Z,9.76
2022-11-04T15:47:44.894Z,9.70
2022-11-04T15:52:49.378Z,9.63
2022-11-04T15:57:51.054Z,9.57
2022-11-04T16:02:54.998Z,9.51
2022-11-04T16:08:21.273Z,9.44
2022-11-04T16:13:25.360Z,9.38
2022-11-04T16:18:51.507Z,9.34
2022-11-04T16:24:30.926Z,9.32
2022-11-04T16:29:36.169Z,9.27
2022-11-04T16:34:38.135Z,9.22
2022-11-04T16:39:40.114Z,9.17
2022-11-04T16:44:50.721Z,9.14
2022-11-04T16:49:51.766Z,9.12
2022-11-04T16:54:55.489Z,9.10
2022-11-04T16:59:57.319Z,9.06
2022-11-04T17:04:58.709Z,9.04
2022-11-04T17:09:59.923Z,9.02
2022-11-04T17:15:00.990Z,9.01
2022-11-04T17:20:02.117Z,9.00
2022-11-04T17:25:03.812Z,8.97
2022-11-04T17:30:07.046Z,8.96
2022-11-04T17:35:09.843Z,8.94
2022-11-04T17:40:17.429Z,8.97
2022-11-04T17:45:19.918Z,8.98
2022-11-04T17:50:22.379Z,8.98
2022-11-04T17:55:27.468Z,8.97
2022-11-04T18:00:29.042Z,8.95
2022-11-04T18:05:30.044Z,8.93
2022-11-04T18:10:31.366Z,8.91
2022-11-04T18:15:32.403Z,8.87
2022-11-04T18:20:34.747Z,8.85
2022-11-04T18:25:38.333Z,8.84
2022-11-04T18:30:40.428Z,8.83
2022-11-04T18:35:41.405Z,8.84
2022-11-04T18:40:43.031Z,8.83
2022-11-04T18:45:44.067Z,8.81
2022-11-04T18:50:45.634Z,8.78
2022-11-04T18:55:46.668Z,8.77
2022-11-04T19:00:48.212Z,8.75
2022-11-04T19:05:49.306Z,8.74
2022-11-04T19:11:01.091Z,8.73
2022-11-04T19:16:05.900Z,8.71
2022-11-04T19:21:09.583Z,8.70
2022-11-04T19:26:16.751Z,8.70
2022-11-04T19:31:23.550Z,8.69
2022-11-04T19:36:27.828Z,8.68
2022-11-04T19:41:48.496Z,8.66
2022-11-04T19:46:50.052Z,8.65
2022-11-04T19:51:51.290Z,8.62
2022-11-04T19:56:52.406Z,8.60
2022-11-04T20:01:53.521Z,8.59
2022-11-04T20:06:54.593Z,8.58
2022-11-04T20:12:14.490Z,8.57
2022-11-04T20:17:15.502Z,8.55
2022-11-04T20:22:16.617Z,8.53
2022-11-04T20:27:18.388Z,8.50
2022-11-04T20:32:20.243Z,8.44
2022-11-04T20:37:21.601Z,8.38
2022-11-04T20:42:22.855Z,8.32
2022-11-04T20:47:23.884Z,8.29
2022-11-04T20:52:25.622Z,8.23
2022-11-04T20:57:27.716Z,8.16
2022-11-04T21:02:29.134Z,8.08
2022-11-04T21:07:30.575Z,8.03
2022-11-04T21:12:31.646Z,8.01
2022-11-04T21:17:37.431Z,8.02
2022-11-04T21:22:41.023Z,8.02
2022-11-04T21:27:42.468Z,8.01
2022-11-04T21:32:43.543Z,8.01
2022-11-04T21:37:44.531Z,7.99
2022-11-04T21:42:45.679Z,7.98
2022-11-04T21:47:46.727Z,7.97
2022-11-04T21:52:47.659Z,7.98
2022-11-04T21:57:48.688Z,7.98
2022-11-04T22:02:50.148Z,7.96
2022-11-04T22:08:09.899Z,7.92
2022-11-04T22:13:11.328Z,7.86
2022-11-04T22:18:15.034Z,7.81
2022-11-04T22:23:16.095Z,7.77
2022-11-04T22:28:18.535Z,7.74
2022-11-04T22:33:19.889Z,7.72
2022-11-04T22:38:20.914Z,7.70
2022-11-04T22:43:24.421Z,7.67
2022-11-04T22:48:25.484Z,7.63
2022-11-04T22:53:28.893Z,7.59
2022-11-04T22:58:30.035Z,7.57
2022-11-04T23:03:31.712Z,7.57
2022-11-04T23:08:35.130Z,7.56
2022-11-04T23:13:54.665Z,7.55
2022-11-04T23:18:56.866Z,7.54
2022-11-04T23:24:17.234Z,7.54
2022-11-04T23:29:37.483Z,7.52
2022-11-04T23:34:57.070Z,7.50
2022-11-04T23:39:58.119Z,7.50
2022-11-04T23:45:17.880Z,7.48
2022-11-04T23:50:37.866Z,7.46
2022-11-04T23:55:56.883Z,7.43
